WetterOnline ( https://www.wetteronline.de )

Wetter aktuell Höxter

Aktuelles Wetter: Lügde-Paenbruch (260m)

6-stündlich | Neueste Meldungen
Ortszeit Temperatur Wetter
Mi, 24.07. 2:00 15.5° C leichter Regen
Di, 23.07. 20:00 17.5° C bewölkt
Di, 23.07. 14:00 18.2° C starker Regen
Di, 23.07. 8:00 18.5° C leicht bewölkt
Di, 23.07. 2:00 15.6° C wolkig
Mo, 22.07. 20:00 20.6° C bedeckt
Mo, 22.07. 14:00 20.8° C wolkenlos
Mo, 22.07. 8:00 16.4° C wolkenlos
Ortszeit Temperatur Wetter
Mi, 24.07. 5:30 14.8° C bewölkt
Mi, 24.07. 5:20 14.8° C bewölkt
Mi, 24.07. 5:10 14.9° C bedeckt
Mi, 24.07. 5:00 15.0° C bedeckt
Mi, 24.07. 4:50 15.0° C bedeckt
Mi, 24.07. 4:40 15.0° C bedeckt
Mi, 24.07. 4:30 15.1° C bewölkt
Mi, 24.07. 4:00 15.3° C bewölkt
Mi, 24.07. 3:30 15.7° C bewölkt
Mi, 24.07. 3:00 15.8° C bedeckt
Mi, 24.07. 2:30 15.7° C Sprühregen
Ortszeit Relative Feuchte Sichtweite
Mi, 24.07. 2:00 96% 19 km
Di, 23.07. 20:00 92% 40 km
Di, 23.07. 14:00 92% 2.3 km
Di, 23.07. 8:00 74% 60 km
Di, 23.07. 2:00 90% 40 km
Mo, 22.07. 20:00 62% >70 km
Mo, 22.07. 14:00 53% 30 km
Mo, 22.07. 8:00 80% 45 km
Ortszeit Relative Feuchte Sichtweite
Mi, 24.07. 5:30 93% 28 km
Mi, 24.07. 5:20 93% -
Mi, 24.07. 5:10 93% -
Mi, 24.07. 5:00 94% 27 km
Mi, 24.07. 4:50 94% -
Mi, 24.07. 4:40 93% -
Mi, 24.07. 4:30 92% 35 km
Mi, 24.07. 4:00 91% 30 km
Mi, 24.07. 3:30 93% 27 km
Mi, 24.07. 3:00 96% 15 km
Mi, 24.07. 2:30 96% 16 km
Ortszeit Niederschlagsmenge Niederschlagsart
Mi, 24.07. 2:00 3 l/m2 in 6 Std. Regen
Di, 23.07. 20:00 13 l/m2 in 12 Std. Regen
Di, 23.07. 14:00 3 l/m2 in 6 Std. Regen
Di, 23.07. 8:00 0.0 l/m2 in 12 Std. -
Di, 23.07. 2:00 0.0 l/m2 in 6 Std. -
Mo, 22.07. 20:00 0.0 l/m2 in 12 Std. -
Mo, 22.07. 14:00 0.0 l/m2 in 6 Std. -
Mo, 22.07. 8:00 1 l/m2 in 12 Std. Sprühregen
Ortszeit Niederschlagsmenge Niederschlagsart
Mi, 24.07. 5:30 0.0 l/m2 in 30 Min -
Mi, 24.07. 5:20 keine Meldung -
Mi, 24.07. 5:10 keine Meldung -
Mi, 24.07. 5:00 <0.05 l/m2 in 1 Std. Regen
Mi, 24.07. 4:50 keine Meldung -
Mi, 24.07. 4:40 keine Meldung -
Mi, 24.07. 4:30 <0.05 l/m2 in 30 Min Schnee
Mi, 24.07. 4:00 <0.05 l/m2 in 1 Std. Regen
Mi, 24.07. 3:30 <0.05 l/m2 in 30 Min Schneeregen
Mi, 24.07. 3:00 <0.05 l/m2 in 1 Std. Regen
Mi, 24.07. 2:30 <0.05 l/m2 in 30 Min -
Ortszeit Stärke Spitze Richtung
km/h Bft. km/h Grad Sektor
Mi, 24.07. 2:00 11 2 22 250° W
Di, 23.07. 20:00 4 1 29 260° W
Di, 23.07. 14:00 9 2 31 280° W
Di, 23.07. 8:00 7 2 14 160° S
Di, 23.07. 2:00 7 2 14 160° S
Mo, 22.07. 20:00 6 1 43 270° W
Mo, 22.07. 14:00 18 3 40 300° NW
Mo, 22.07. 8:00 11 2 40 260° W
Ortszeit Stärke Spitze Richtung
km/h Bft. km/h Grad Sektor
Mi, 24.07. 5:30 14 3 25 280° W
Mi, 24.07. 5:20 14 3 - 280° W
Mi, 24.07. 5:10 13 3 - 280° W
Mi, 24.07. 5:00 9 2 24 280° W
Mi, 24.07. 4:50 9 2 - 280° W
Mi, 24.07. 4:40 11 2 - 290° W
Mi, 24.07. 4:30 11 2 22 290° W
Mi, 24.07. 4:00 9 2 26 280° W
Mi, 24.07. 3:30 11 2 18 290° W
Mi, 24.07. 3:00 7 2 14 280° W
Mi, 24.07. 2:30 7 2 14 280° W
Ortszeit Untergrenze Bedeckung Gattung
total tief tief mittel hoch
Mi, 24.07. 2:00 570 m 7/8 7/8 - - -
Di, 23.07. 20:00 990 m 8/8 5/8 - - -
Di, 23.07. 14:00 420 m 8/8 8/8 - - -
Di, 23.07. 8:00 1500 m 2/8 2/8 - - -
Di, 23.07. 2:00 1200 m 6/8 6/8 - - -
Mo, 22.07. 20:00 1500 m 8/8 8/8 - - -
Mo, 22.07. 14:00 - 0/8 0/8 - - -
Mo, 22.07. 8:00 - 0/8 0/8 - - -
Ortszeit Bedeckungsgrad in Achtel und Wolkenuntergrenze
Mi, 24.07. 5:30 3(450m) 7(1500m)
Mi, 24.07. 5:20 3(450m) 7(1500m)
Mi, 24.07. 5:10 8
Mi, 24.07. 5:00 2(360m) 5(810m) 8(1500m)
Mi, 24.07. 4:50 2(360m) 5(810m) 8(1500m)
Mi, 24.07. 4:40 8
Mi, 24.07. 4:30 2(450m) 4(870m) 7(1500m)
Mi, 24.07. 4:00 3(900m) 5(1080m) 7(1500m)
Mi, 24.07. 3:30 5(240m) 5(1320m) 7(1800m)
Mi, 24.07. 3:00 4(240m) 7(450m) 8(600m)
Mi, 24.07. 2:30 3(210m) 7(690m) 8(990m)
Ortszeit Luftdruck NN (hPa) Tendenz (hPa in 3 Std.)
Mi, 24.07. 2:00 1018 + 1,2
Di, 23.07. 20:00 1015 + 0,1
Di, 23.07. 14:00 1016 - 0,6
Di, 23.07. 8:00 1017 - 0,5
Di, 23.07. 2:00 1019 - 0,1
Mo, 22.07. 20:00 1017 + 0,2
Mo, 22.07. 14:00 1016 + 0,8
Mo, 22.07. 8:00 1015 + 1,8
Ortszeit Luftdruck NN (hPa) Tendenz (hPa in 3 Std.)
Mi, 24.07. 5:30 1018 + 0,6
Mi, 24.07. 5:20 1018 keine Meldung
Mi, 24.07. 5:10 1019 keine Meldung
Mi, 24.07. 5:00 1018 + 0,6
Mi, 24.07. 4:50 1018 keine Meldung
Mi, 24.07. 4:40 1019 keine Meldung
Mi, 24.07. 4:30 1018 + 0,7
Mi, 24.07. 4:00 1018 + 0,6
Mi, 24.07. 3:30 1018 + 0,4
Mi, 24.07. 3:00 1018 + 0,6
Mi, 24.07. 2:30 1018 + 0,9
Ortszeit Schneehöhe (cm)
Mi, 24.07. 2:00 0
Di, 23.07. 20:00 0
Di, 23.07. 14:00 0
Di, 23.07. 8:00 0
Di, 23.07. 2:00 0
Mo, 22.07. 20:00 0
Mo, 22.07. 14:00 0
Mo, 22.07. 8:00 0
Ortszeit Schneehöhe (cm)
Mi, 24.07. 5:30 0
Mi, 24.07. 5:20 0
Mi, 24.07. 5:10 -
Mi, 24.07. 5:00 0
Mi, 24.07. 4:50 0
Mi, 24.07. 4:40 -
Mi, 24.07. 4:30 0
Mi, 24.07. 4:00 0
Mi, 24.07. 3:30 0
Mi, 24.07. 3:00 0
Mi, 24.07. 2:30 0
Link zu dieser Seite / Seite empfehlen

Das Wetter in ...